sensor_id;sensor_type;location;lat;lon;timestamp;temperature;humidity
5846;DHT22;2949;50.778;7.094;2023-07-16T00:00:11;20.50;99.90
5846;DHT22;2949;50.778;7.094;2023-07-16T00:02:38;20.50;99.90
5846;DHT22;2949;50.778;7.094;2023-07-16T00:05:04;20.40;99.90
5846;DHT22;2949;50.778;7.094;2023-07-16T00:07:29;20.40;99.90
5846;DHT22;2949;50.778;7.094;2023-07-16T00:09:55;20.30;99.90
5846;DHT22;2949;50.778;7.094;2023-07-16T00:12:20;20.30;99.90
5846;DHT22;2949;50.778;7.094;2023-07-16T00:14:47;20.30;99.90
5846;DHT22;2949;50.778;7.094;2023-07-16T00:17:12;20.20;99.90
5846;DHT22;2949;50.778;7.094;2023-07-16T00:19:38;20.10;99.90
5846;DHT22;2949;50.778;7.094;2023-07-16T00:22:04;20.10;99.90
5846;DHT22;2949;50.778;7.094;2023-07-16T00:24:29;20.00;99.90
5846;DHT22;2949;50.778;7.094;2023-07-16T00:26:55;20.00;99.90
5846;DHT22;2949;50.778;7.094;2023-07-16T00:29:20;19.90;99.90
5846;DHT22;2949;50.778;7.094;2023-07-16T00:31:46;19.90;99.90
5846;DHT22;2949;50.778;7.094;2023-07-16T00:34:11;19.80;99.90
5846;DHT22;2949;50.778;7.094;2023-07-16T00:36:38;19.70;99.90
5846;DHT22;2949;50.778;7.094;2023-07-16T00:39:03;19.70;99.90
5846;DHT22;2949;50.778;7.094;2023-07-16T00:41:29;19.70;99.90
5846;DHT22;2949;50.778;7.094;2023-07-16T00:43:54;19.70;99.90
5846;DHT22;2949;50.778;7.094;2023-07-16T00:46:20;19.60;99.90
5846;DHT22;2949;50.778;7.094;2023-07-16T00:48:46;19.50;99.90
5846;DHT22;2949;50.778;7.094;2023-07-16T00:51:11;19.50;99.90
5846;DHT22;2949;50.778;7.094;2023-07-16T00:53:40;19.50;99.90
5846;DHT22;2949;50.778;7.094;2023-07-16T00:56:07;19.50;99.90
5846;DHT22;2949;50.778;7.094;2023-07-16T00:58:33;19.50;99.90
5846;DHT22;2949;50.778;7.094;2023-07-16T01:00:58;19.40;99.90
5846;DHT22;2949;50.778;7.094;2023-07-16T01:03:24;19.40;99.90
5846;DHT22;2949;50.778;7.094;2023-07-16T01:06:16;19.30;99.90
5846;DHT22;2949;50.778;7.094;2023-07-16T01:09:03;19.30;99.90
5846;DHT22;2949;50.778;7.094;2023-07-16T01:11:33;19.20;99.90
5846;DHT22;2949;50.778;7.094;2023-07-16T01:14:01;19.10;99.90
5846;DHT22;2949;50.778;7.094;2023-07-16T01:16:27;19.10;99.90
5846;DHT22;2949;50.778;7.094;2023-07-16T01:18:53;19.00;99.90
5846;DHT22;2949;50.778;7.094;2023-07-16T01:21:20;19.00;99.90
5846;DHT22;2949;50.778;7.094;2023-07-16T01:24:04;19.00;99.90
5846;DHT22;2949;50.778;7.094;2023-07-16T01:29:33;18.80;99.90
5846;DHT22;2949;50.778;7.094;2023-07-16T01:32:00;18.80;99.90
5846;DHT22;2949;50.778;7.094;2023-07-16T01:34:30;18.70;99.90
5846;DHT22;2949;50.778;7.094;2023-07-16T01:36:56;18.70;99.90
5846;DHT22;2949;50.778;7.094;2023-07-16T01:39:22;18.70;99.90
5846;DHT22;2949;50.778;7.094;2023-07-16T01:41:47;18.70;99.90
5846;DHT22;2949;50.778;7.094;2023-07-16T01:44:13;18.70;99.90
5846;DHT22;2949;50.778;7.094;2023-07-16T01:46:38;18.70;99.90
5846;DHT22;2949;50.778;7.094;2023-07-16T01:49:04;18.60;99.90
5846;DHT22;2949;50.778;7.094;2023-07-16T01:51:29;18.60;99.90
5846;DHT22;2949;50.778;7.094;2023-07-16T01:53:55;18.60;99.90
5846;DHT22;2949;50.778;7.094;2023-07-16T01:56:20;18.60;99.90
5846;DHT22;2949;50.778;7.094;2023-07-16T01:58:46;18.60;99.90
5846;DHT22;2949;50.778;7.094;2023-07-16T02:01:11;18.50;99.90
5846;DHT22;2949;50.778;7.094;2023-07-16T02:03:37;18.50;99.90
5846;DHT22;2949;50.778;7.094;2023-07-16T02:06:02;18.60;99.90
5846;DHT22;2949;50.778;7.094;2023-07-16T02:08:28;18.70;99.90
5846;DHT22;2949;50.778;7.094;2023-07-16T02:10:53;18.70;99.90
5846;DHT22;2949;50.778;7.094;2023-07-16T02:13:19;18.70;99.90
5846;DHT22;2949;50.778;7.094;2023-07-16T02:15:44;18.70;99.90
5846;DHT22;2949;50.778;7.094;2023-07-16T02:18:10;18.60;99.90
5846;DHT22;2949;50.778;7.094;2023-07-16T02:20:36;18.50;99.90
5846;DHT22;2949;50.778;7.094;2023-07-16T02:23:01;18.50;99.90
5846;DHT22;2949;50.778;7.094;2023-07-16T02:25:27;18.50;99.90
5846;DHT22;2949;50.778;7.094;2023-07-16T02:27:53;18.50;99.90
5846;DHT22;2949;50.778;7.094;2023-07-16T02:30:18;18.50;99.90
5846;DHT22;2949;50.778;7.094;2023-07-16T02:32:44;18.40;99.90
5846;DHT22;2949;50.778;7.094;2023-07-16T02:35:10;18.30;99.90
5846;DHT22;2949;50.778;7.094;2023-07-16T02:37:35;18.30;99.90
5846;DHT22;2949;50.778;7.094;2023-07-16T02:40:01;18.30;99.90
5846;DHT22;2949;50.778;7.094;2023-07-16T02:42:26;18.30;99.90
5846;DHT22;2949;50.778;7.094;2023-07-16T02:44:52;18.20;99.90
5846;DHT22;2949;50.778;7.094;2023-07-16T02:47:18;18.30;99.90
5846;DHT22;2949;50.778;7.094;2023-07-16T02:49:43;18.30;99.90
5846;DHT22;2949;50.778;7.094;2023-07-16T02:52:09;18.30;99.90
5846;DHT22;2949;50.778;7.094;2023-07-16T02:54:38;18.30;99.90
5846;DHT22;2949;50.778;7.094;2023-07-16T02:59:30;18.30;99.90
5846;DHT22;2949;50.778;7.094;2023-07-16T03:01:55;18.20;99.90
5846;DHT22;2949;50.778;7.094;2023-07-16T03:04:21;18.20;99.90
5846;DHT22;2949;50.778;7.094;2023-07-16T03:06:46;18.20;99.90
5846;DHT22;2949;50.778;7.094;2023-07-16T03:09:12;18.10;99.90
5846;DHT22;2949;50.778;7.094;2023-07-16T03:11:37;18.00;99.90
5846;DHT22;2949;50.778;7.094;2023-07-16T03:14:03;18.00;99.90
5846;DHT22;2949;50.778;7.094;2023-07-16T03:16:28;17.90;99.90
5846;DHT22;2949;50.778;7.094;2023-07-16T03:18:54;17.90;99.90
5846;DHT22;2949;50.778;7.094;2023-07-16T03:21:20;18.00;99.90
5846;DHT22;2949;50.778;7.094;2023-07-16T03:23:45;17.90;99.90
5846;DHT22;2949;50.778;7.094;2023-07-16T03:26:11;17.90;99.90
5846;DHT22;2949;50.778;7.094;2023-07-16T03:28:36;17.80;99.90
5846;DHT22;2949;50.778;7.094;2023-07-16T03:31:02;17.70;99.90
5846;DHT22;2949;50.778;7.094;2023-07-16T03:33:27;17.70;99.90
5846;DHT22;2949;50.778;7.094;2023-07-16T03:35:53;17.60;99.90
5846;DHT22;2949;50.778;7.094;2023-07-16T03:38:18;17.60;99.90
5846;DHT22;2949;50.778;7.094;2023-07-16T03:40:47;17.50;99.90
5846;DHT22;2949;50.778;7.094;2023-07-16T03:43:13;17.50;99.90
5846;DHT22;2949;50.778;7.094;2023-07-16T03:45:39;17.50;99.90
5846;DHT22;2949;50.778;7.094;2023-07-16T03:48:05;17.50;99.90
5846;DHT22;2949;50.778;7.094;2023-07-16T03:50:30;17.50;99.90
5846;DHT22;2949;50.778;7.094;2023-07-16T03:52:56;17.50;99.90
5846;DHT22;2949;50.778;7.094;2023-07-16T03:55:21;17.40;99.90
5846;DHT22;2949;50.778;7.094;2023-07-16T03:57:47;17.50;99.90
5846;DHT22;2949;50.778;7.094;2023-07-16T04:00:12;17.60;99.90
5846;DHT22;2949;50.778;7.094;2023-07-16T04:02:38;17.60;99.90
5846;DHT22;2949;50.778;7.094;2023-07-16T04:05:03;17.50;99.90
5846;DHT22;2949;50.778;7.094;2023-07-16T04:07:29;17.50;99.90
5846;DHT22;2949;50.778;7.094;2023-07-16T04:09:54;17.40;99.90
5846;DHT22;2949;50.778;7.094;2023-07-16T04:12:20;17.40;99.90
5846;DHT22;2949;50.778;7.094;2023-07-16T04:14:47;17.50;99.90
5846;DHT22;2949;50.778;7.094;2023-07-16T04:17:12;17.50;99.90
5846;DHT22;2949;50.778;7.094;2023-07-16T04:19:38;17.50;99.90
5846;DHT22;2949;50.778;7.094;2023-07-16T04:22:04;17.50;99.90
5846;DHT22;2949;50.778;7.094;2023-07-16T04:24:29;17.60;99.90
5846;DHT22;2949;50.778;7.094;2023-07-16T04:26:55;17.60;99.90
5846;DHT22;2949;50.778;7.094;2023-07-16T04:29:21;17.60;99.90
5846;DHT22;2949;50.778;7.094;2023-07-16T04:31:47;17.50;99.90
5846;DHT22;2949;50.778;7.094;2023-07-16T04:34:12;17.60;99.90
5846;DHT22;2949;50.778;7.094;2023-07-16T04:36:38;17.60;99.90
5846;DHT22;2949;50.778;7.094;2023-07-16T04:39:04;17.70;99.90
5846;DHT22;2949;50.778;7.094;2023-07-16T04:41:30;17.80;99.90
5846;DHT22;2949;50.778;7.094;2023-07-16T04:43:55;17.90;99.90
5846;DHT22;2949;50.778;7.094;2023-07-16T04:46:21;17.90;99.90
5846;DHT22;2949;50.778;7.094;2023-07-16T04:48:47;18.00;99.90
5846;DHT22;2949;50.778;7.094;2023-07-16T04:51:12;18.10;99.90
5846;DHT22;2949;50.778;7.094;2023-07-16T04:53:38;18.10;99.90
5846;DHT22;2949;50.778;7.094;2023-07-16T04:56:03;18.20;99.90
5846;DHT22;2949;50.778;7.094;2023-07-16T04:58:30;18.20;99.90
5846;DHT22;2949;50.778;7.094;2023-07-16T05:00:55;18.30;99.90
5846;DHT22;2949;50.778;7.094;2023-07-16T05:03:21;18.40;99.90
5846;DHT22;2949;50.778;7.094;2023-07-16T05:05:46;18.50;99.90
5846;DHT22;2949;50.778;7.094;2023-07-16T05:08:12;18.50;99.90
5846;DHT22;2949;50.778;7.094;2023-07-16T05:10:37;18.60;99.90
5846;DHT22;2949;50.778;7.094;2023-07-16T05:13:03;18.60;99.90
5846;DHT22;2949;50.778;7.094;2023-07-16T05:15:32;18.70;99.90
5846;DHT22;2949;50.778;7.094;2023-07-16T05:17:57;18.80;99.90
5846;DHT22;2949;50.778;7.094;2023-07-16T05:20:23;18.90;99.90
5846;DHT22;2949;50.778;7.094;2023-07-16T05:22:49;18.90;99.90
5846;DHT22;2949;50.778;7.094;2023-07-16T05:25:14;19.00;99.90
5846;DHT22;2949;50.778;7.094;2023-07-16T05:27:40;19.10;99.90
5846;DHT22;2949;50.778;7.094;2023-07-16T05:30:06;19.10;99.90
5846;DHT22;2949;50.778;7.094;2023-07-16T05:32:31;19.20;99.90
5846;DHT22;2949;50.778;7.094;2023-07-16T05:34:57;19.30;99.90
5846;DHT22;2949;50.778;7.094;2023-07-16T05:37:22;19.40;99.90
5846;DHT22;2949;50.778;7.094;2023-07-16T05:39:48;19.60;99.90
5846;DHT22;2949;50.778;7.094;2023-07-16T05:42:13;19.70;99.90
5846;DHT22;2949;50.778;7.094;2023-07-16T05:44:39;19.90;99.90
5846;DHT22;2949;50.778;7.094;2023-07-16T05:47:05;20.50;99.90
5846;DHT22;2949;50.778;7.094;2023-07-16T05:49:31;22.80;99.90
5846;DHT22;2949;50.778;7.094;2023-07-16T05:51:57;25.50;99.90
5846;DHT22;2949;50.778;7.094;2023-07-16T05:54:23;27.40;99.90
5846;DHT22;2949;50.778;7.094;2023-07-16T05:56:48;28.40;96.30
5846;DHT22;2949;50.778;7.094;2023-07-16T05:59:14;28.50;94.40
5846;DHT22;2949;50.778;7.094;2023-07-16T06:01:39;29.30;92.60
5846;DHT22;2949;50.778;7.094;2023-07-16T06:04:05;29.90;90.50
5846;DHT22;2949;50.778;7.094;2023-07-16T06:06:31;30.10;88.20
5846;DHT22;2949;50.778;7.094;2023-07-16T06:08:56;30.40;85.30
5846;DHT22;2949;50.778;7.094;2023-07-16T06:11:22;30.80;82.50
5846;DHT22;2949;50.778;7.094;2023-07-16T06:13:47;31.60;80.00
5846;DHT22;2949;50.778;7.094;2023-07-16T06:16:13;32.40;75.40
5846;DHT22;2949;50.778;7.094;2023-07-16T06:18:38;32.20;74.40
5846;DHT22;2949;50.778;7.094;2023-07-16T06:21:04;32.60;71.60
5846;DHT22;2949;50.778;7.094;2023-07-16T06:23:29;32.40;70.80
5846;DHT22;2949;50.778;7.094;2023-07-16T06:25:55;33.00;69.40
5846;DHT22;2949;50.778;7.094;2023-07-16T06:28:21;33.40;66.30
5846;DHT22;2949;50.778;7.094;2023-07-16T06:30:47;33.50;65.60
5846;DHT22;2949;50.778;7.094;2023-07-16T06:33:12;33.50;63.50
5846;DHT22;2949;50.778;7.094;2023-07-16T06:35:38;33.50;62.20
5846;DHT22;2949;50.778;7.094;2023-07-16T06:38:03;32.60;63.60
5846;DHT22;2949;50.778;7.094;2023-07-16T06:40:29;32.70;63.10
5846;DHT22;2949;50.778;7.094;2023-07-16T06:42:56;32.60;64.00
5846;DHT22;2949;50.778;7.094;2023-07-16T06:45:21;31.60;64.70
5846;DHT22;2949;50.778;7.094;2023-07-16T06:47:48;32.10;62.20
5846;DHT22;2949;50.778;7.094;2023-07-16T06:50:13;32.00;62.60
5846;DHT22;2949;50.778;7.094;2023-07-16T06:52:39;32.50;60.70
5846;DHT22;2949;50.778;7.094;2023-07-16T06:55:05;32.20;61.40
5846;DHT22;2949;50.778;7.094;2023-07-16T06:57:30;32.80;60.10
5846;DHT22;2949;50.778;7.094;2023-07-16T06:59:56;32.60;59.60
5846;DHT22;2949;50.778;7.094;2023-07-16T07:02:21;32.60;58.20
5846;DHT22;2949;50.778;7.094;2023-07-16T07:04:47;32.40;58.90
5846;DHT22;2949;50.778;7.094;2023-07-16T07:07:12;32.20;58.80
5846;DHT22;2949;50.778;7.094;2023-07-16T07:09:39;32.10;59.40
5846;DHT22;2949;50.778;7.094;2023-07-16T07:12:05;32.80;58.00
5846;DHT22;2949;50.778;7.094;2023-07-16T07:14:33;33.20;57.40
5846;DHT22;2949;50.778;7.094;2023-07-16T07:16:58;33.90;55.30
5846;DHT22;2949;50.778;7.094;2023-07-16T07:19:24;33.80;54.40
5846;DHT22;2949;50.778;7.094;2023-07-16T07:21:49;34.00;54.60
5846;DHT22;2949;50.778;7.094;2023-07-16T07:24:15;35.00;54.30
5846;DHT22;2949;50.778;7.094;2023-07-16T07:26:40;35.90;53.20
5846;DHT22;2949;50.778;7.094;2023-07-16T07:29:06;35.40;50.80
5846;DHT22;2949;50.778;7.094;2023-07-16T07:31:31;34.40;51.50
5846;DHT22;2949;50.778;7.094;2023-07-16T07:33:57;33.90;51.40
5846;DHT22;2949;50.778;7.094;2023-07-16T07:36:23;33.80;51.90
5846;DHT22;2949;50.778;7.094;2023-07-16T07:38:49;33.50;52.70
5846;DHT22;2949;50.778;7.094;2023-07-16T07:41:15;34.30;51.40
5846;DHT22;2949;50.778;7.094;2023-07-16T07:43:40;34.90;50.40
5846;DHT22;2949;50.778;7.094;2023-07-16T07:46:06;34.70;49.40
5846;DHT22;2949;50.778;7.094;2023-07-16T07:48:31;34.30;49.80
5846;DHT22;2949;50.778;7.094;2023-07-16T07:50:57;34.40;49.50
5846;DHT22;2949;50.778;7.094;2023-07-16T07:53:23;34.50;50.50
5846;DHT22;2949;50.778;7.094;2023-07-16T07:55:48;34.60;48.80
5846;DHT22;2949;50.778;7.094;2023-07-16T07:58:13;34.10;48.40
5846;DHT22;2949;50.778;7.094;2023-07-16T08:00:39;34.00;48.90
5846;DHT22;2949;50.778;7.094;2023-07-16T08:03:04;34.20;48.10
5846;DHT22;2949;50.778;7.094;2023-07-16T08:05:30;33.90;48.20
5846;DHT22;2949;50.778;7.094;2023-07-16T08:07:56;33.50;47.20
5846;DHT22;2949;50.778;7.094;2023-07-16T08:10:22;33.70;47.80
5846;DHT22;2949;50.778;7.094;2023-07-16T08:12:48;32.80;48.70
5846;DHT22;2949;50.778;7.094;2023-07-16T08:15:14;33.00;49.10
5846;DHT22;2949;50.778;7.094;2023-07-16T08:17:44;33.70;47.50
5846;DHT22;2949;50.778;7.094;2023-07-16T08:20:10;33.80;47.40
5846;DHT22;2949;50.778;7.094;2023-07-16T08:22:36;34.40;46.20
5846;DHT22;2949;50.778;7.094;2023-07-16T08:25:02;34.40;46.20
5846;DHT22;2949;50.778;7.094;2023-07-16T08:27:29;34.30;45.60
5846;DHT22;2949;50.778;7.094;2023-07-16T08:29:54;34.00;46.50
5846;DHT22;2949;50.778;7.094;2023-07-16T08:32:20;33.90;46.00
5846;DHT22;2949;50.778;7.094;2023-07-16T08:34:46;33.70;47.20
5846;DHT22;2949;50.778;7.094;2023-07-16T08:37:12;34.00;45.90
5846;DHT22;2949;50.778;7.094;2023-07-16T08:39:37;32.70;47.60
5846;DHT22;2949;50.778;7.094;2023-07-16T08:42:04;33.00;47.40
5846;DHT22;2949;50.778;7.094;2023-07-16T08:44:30;33.50;46.10
5846;DHT22;2949;50.778;7.094;2023-07-16T08:46:56;33.30;45.70
5846;DHT22;2949;50.778;7.094;2023-07-16T08:49:22;33.70;45.80
5846;DHT22;2949;50.778;7.094;2023-07-16T08:51:49;33.70;46.00
5846;DHT22;2949;50.778;7.094;2023-07-16T08:54:15;34.30;45.40
5846;DHT22;2949;50.778;7.094;2023-07-16T08:56:43;34.40;44.80
5846;DHT22;2949;50.778;7.094;2023-07-16T08:59:10;34.40;45.00
5846;DHT22;2949;50.778;7.094;2023-07-16T09:01:37;34.60;43.90
5846;DHT22;2949;50.778;7.094;2023-07-16T09:04:02;34.70;44.90
5846;DHT22;2949;50.778;7.094;2023-07-16T09:06:28;34.40;45.30
5846;DHT22;2949;50.778;7.094;2023-07-16T09:08:54;34.40;44.20
5846;DHT22;2949;50.778;7.094;2023-07-16T09:11:21;34.20;44.70
5846;DHT22;2949;50.778;7.094;2023-07-16T09:13:50;34.20;44.80
5846;DHT22;2949;50.778;7.094;2023-07-16T09:16:18;34.40;44.60
5846;DHT22;2949;50.778;7.094;2023-07-16T09:18:44;34.60;43.70
5846;DHT22;2949;50.778;7.094;2023-07-16T09:21:10;33.50;44.80
5846;DHT22;2949;50.778;7.094;2023-07-16T09:23:36;32.50;46.40
5846;DHT22;2949;50.778;7.094;2023-07-16T09:26:02;31.70;46.70
5846;DHT22;2949;50.778;7.094;2023-07-16T09:28:30;31.70;46.90
5846;DHT22;2949;50.778;7.094;2023-07-16T09:31:03;31.60;48.10
5846;DHT22;2949;50.778;7.094;2023-07-16T09:33:31;32.20;46.70
5846;DHT22;2949;50.778;7.094;2023-07-16T09:35:57;31.80;47.10
5846;DHT22;2949;50.778;7.094;2023-07-16T09:38:23;31.50;47.60
5846;DHT22;2949;50.778;7.094;2023-07-16T09:40:52;31.30;48.40
5846;DHT22;2949;50.778;7.094;2023-07-16T09:43:18;32.30;47.10
5846;DHT22;2949;50.778;7.094;2023-07-16T09:45:43;33.20;45.80
5846;DHT22;2949;50.778;7.094;2023-07-16T09:48:09;33.60;45.80
5846;DHT22;2949;50.778;7.094;2023-07-16T09:50:36;34.00;44.80
5846;DHT22;2949;50.778;7.094;2023-07-16T09:53:04;33.30;43.90
5846;DHT22;2949;50.778;7.094;2023-07-16T09:55:35;32.90;46.40
5846;DHT22;2949;50.778;7.094;2023-07-16T09:58:03;32.50;47.00
5846;DHT22;2949;50.778;7.094;2023-07-16T10:00:32;32.50;46.70
5846;DHT22;2949;50.778;7.094;2023-07-16T10:02:59;32.60;46.00
5846;DHT22;2949;50.778;7.094;2023-07-16T10:05:26;32.80;45.10
5846;DHT22;2949;50.778;7.094;2023-07-16T10:07:59;32.10;45.20
5846;DHT22;2949;50.778;7.094;2023-07-16T10:13:11;32.20;46.60
5846;DHT22;2949;50.778;7.094;2023-07-16T10:15:38;32.40;45.60
5846;DHT22;2949;50.778;7.094;2023-07-16T10:18:03;32.80;44.00
5846;DHT22;2949;50.778;7.094;2023-07-16T10:20:33;33.10;44.30
5846;DHT22;2949;50.778;7.094;2023-07-16T10:23:13;33.30;43.50
5846;DHT22;2949;50.778;7.094;2023-07-16T10:25:39;33.20;43.80
5846;DHT22;2949;50.778;7.094;2023-07-16T10:28:05;32.60;45.10
5846;DHT22;2949;50.778;7.094;2023-07-16T10:30:32;32.20;45.50
5846;DHT22;2949;50.778;7.094;2023-07-16T10:32:58;32.30;45.90
5846;DHT22;2949;50.778;7.094;2023-07-16T10:35:25;31.70;45.40
5846;DHT22;2949;50.778;7.094;2023-07-16T10:37:51;31.70;46.60
5846;DHT22;2949;50.778;7.094;2023-07-16T10:40:17;31.20;45.90
5846;DHT22;2949;50.778;7.094;2023-07-16T10:42:43;30.10;47.50
5846;DHT22;2949;50.778;7.094;2023-07-16T10:45:10;30.00;48.70
5846;DHT22;2949;50.778;7.094;2023-07-16T10:47:36;31.30;47.30
5846;DHT22;2949;50.778;7.094;2023-07-16T10:50:07;32.20;45.70
5846;DHT22;2949;50.778;7.094;2023-07-16T10:52:34;31.90;45.20
5846;DHT22;2949;50.778;7.094;2023-07-16T10:55:00;30.40;45.70
5846;DHT22;2949;50.778;7.094;2023-07-16T10:57:26;29.60;47.80
5846;DHT22;2949;50.778;7.094;2023-07-16T10:59:53;29.20;47.70
5846;DHT22;2949;50.778;7.094;2023-07-16T11:02:21;28.90;49.30
5846;DHT22;2949;50.778;7.094;2023-07-16T11:04:47;28.60;49.30
5846;DHT22;2949;50.778;7.094;2023-07-16T11:07:14;28.30;49.80
5846;DHT22;2949;50.778;7.094;2023-07-16T11:09:51;28.10;50.90
5846;DHT22;2949;50.778;7.094;2023-07-16T11:12:19;27.70;50.20
5846;DHT22;2949;50.778;7.094;2023-07-16T11:14:51;27.50;51.10
5846;DHT22;2949;50.778;7.094;2023-07-16T11:17:17;27.50;51.20
5846;DHT22;2949;50.778;7.094;2023-07-16T11:19:47;27.20;50.70
5846;DHT22;2949;50.778;7.094;2023-07-16T11:22:14;26.90;51.80
5846;DHT22;2949;50.778;7.094;2023-07-16T11:24:42;27.20;51.80
5846;DHT22;2949;50.778;7.094;2023-07-16T11:27:15;27.70;51.50
5846;DHT22;2949;50.778;7.094;2023-07-16T11:29:46;28.30;51.50
5846;DHT22;2949;50.778;7.094;2023-07-16T11:32:12;28.60;50.20
5846;DHT22;2949;50.778;7.094;2023-07-16T11:34:37;29.00;50.10
5846;DHT22;2949;50.778;7.094;2023-07-16T11:37:12;29.00;48.70
5846;DHT22;2949;50.778;7.094;2023-07-16T11:39:37;29.10;50.10
5846;DHT22;2949;50.778;7.094;2023-07-16T11:42:04;29.00;49.30
5846;DHT22;2949;50.778;7.094;2023-07-16T11:44:33;28.40;49.60
5846;DHT22;2949;50.778;7.094;2023-07-16T11:47:00;28.30;49.20
5846;DHT22;2949;50.778;7.094;2023-07-16T11:49:25;28.30;50.10
5846;DHT22;2949;50.778;7.094;2023-07-16T11:51:51;27.80;50.30
5846;DHT22;2949;50.778;7.094;2023-07-16T11:54:16;27.30;50.50
5846;DHT22;2949;50.778;7.094;2023-07-16T11:56:42;27.20;51.40
5846;DHT22;2949;50.778;7.094;2023-07-16T11:59:07;27.50;51.50
5846;DHT22;2949;50.778;7.094;2023-07-16T12:01:33;27.20;51.20
5846;DHT22;2949;50.778;7.094;2023-07-16T12:03:58;26.70;51.50
5846;DHT22;2949;50.778;7.094;2023-07-16T12:06:24;26.90;52.10
5846;DHT22;2949;50.778;7.094;2023-07-16T12:08:49;27.20;52.60
5846;DHT22;2949;50.778;7.094;2023-07-16T12:11:15;27.40;52.20
5846;DHT22;2949;50.778;7.094;2023-07-16T12:13:41;27.80;51.40
5846;DHT22;2949;50.778;7.094;2023-07-16T12:16:06;27.60;51.30
5846;DHT22;2949;50.778;7.094;2023-07-16T12:18:32;27.70;51.70
5846;DHT22;2949;50.778;7.094;2023-07-16T12:20:57;27.60;51.90
5846;DHT22;2949;50.778;7.094;2023-07-16T12:23:23;27.70;51.40
5846;DHT22;2949;50.778;7.094;2023-07-16T12:25:50;27.60;51.10
5846;DHT22;2949;50.778;7.094;2023-07-16T12:28:15;27.60;51.60
5846;DHT22;2949;50.778;7.094;2023-07-16T12:30:41;27.90;52.50
5846;DHT22;2949;50.778;7.094;2023-07-16T12:33:07;28.20;50.80
5846;DHT22;2949;50.778;7.094;2023-07-16T12:35:32;28.20;51.20
5846;DHT22;2949;50.778;7.094;2023-07-16T12:37:58;28.50;50.40
5846;DHT22;2949;50.778;7.094;2023-07-16T12:40:25;28.50;50.10
5846;DHT22;2949;50.778;7.094;2023-07-16T12:42:50;28.70;50.50
5846;DHT22;2949;50.778;7.094;2023-07-16T12:45:16;28.70;49.00
5846;DHT22;2949;50.778;7.094;2023-07-16T12:47:41;28.50;49.80
5846;DHT22;2949;50.778;7.094;2023-07-16T12:50:07;28.40;50.30
5846;DHT22;2949;50.778;7.094;2023-07-16T12:52:33;28.40;50.40
5846;DHT22;2949;50.778;7.094;2023-07-16T12:54:59;28.30;49.50
5846;DHT22;2949;50.778;7.094;2023-07-16T12:57:24;28.10;49.90
5846;DHT22;2949;50.778;7.094;2023-07-16T12:59:50;27.90;50.10
5846;DHT22;2949;50.778;7.094;2023-07-16T13:02:15;28.00;50.30
5846;DHT22;2949;50.778;7.094;2023-07-16T13:04:41;27.90;49.60
5846;DHT22;2949;50.778;7.094;2023-07-16T13:07:06;27.50;49.80
5846;DHT22;2949;50.778;7.094;2023-07-16T13:09:31;27.30;51.40
5846;DHT22;2949;50.778;7.094;2023-07-16T13:11:57;27.30;51.60
5846;DHT22;2949;50.778;7.094;2023-07-16T13:14:23;27.20;51.70
5846;DHT22;2949;50.778;7.094;2023-07-16T13:16:48;27.60;51.90
5846;DHT22;2949;50.778;7.094;2023-07-16T13:19:14;27.40;50.80
5846;DHT22;2949;50.778;7.094;2023-07-16T13:21:39;27.40;51.30
5846;DHT22;2949;50.778;7.094;2023-07-16T13:24:05;27.20;51.10
5846;DHT22;2949;50.778;7.094;2023-07-16T13:26:30;27.40;50.80
5846;DHT22;2949;50.778;7.094;2023-07-16T13:28:56;27.70;51.40
5846;DHT22;2949;50.778;7.094;2023-07-16T13:31:21;28.00;48.80
5846;DHT22;2949;50.778;7.094;2023-07-16T13:33:47;27.80;47.40
5846;DHT22;2949;50.778;7.094;2023-07-16T13:36:12;27.40;47.80
5846;DHT22;2949;50.778;7.094;2023-07-16T13:38:38;27.10;48.80
5846;DHT22;2949;50.778;7.094;2023-07-16T13:41:03;27.20;49.80
5846;DHT22;2949;50.778;7.094;2023-07-16T13:43:29;27.40;49.70
5846;DHT22;2949;50.778;7.094;2023-07-16T13:45:54;27.50;50.10
5846;DHT22;2949;50.778;7.094;2023-07-16T13:48:20;27.70;50.20
5846;DHT22;2949;50.778;7.094;2023-07-16T13:50:45;27.90;50.60
5846;DHT22;2949;50.778;7.094;2023-07-16T13:53:11;28.10;48.40
5846;DHT22;2949;50.778;7.094;2023-07-16T13:55:36;28.10;49.60
5846;DHT22;2949;50.778;7.094;2023-07-16T13:58:02;27.90;49.20
5846;DHT22;2949;50.778;7.094;2023-07-16T14:00:28;27.80;49.50
5846;DHT22;2949;50.778;7.094;2023-07-16T14:02:53;27.90;48.10
5846;DHT22;2949;50.778;7.094;2023-07-16T14:05:19;28.00;48.80
5846;DHT22;2949;50.778;7.094;2023-07-16T14:07:46;28.00;48.60
5846;DHT22;2949;50.778;7.094;2023-07-16T14:10:12;27.90;49.00
5846;DHT22;2949;50.778;7.094;2023-07-16T14:12:37;27.70;49.50
5846;DHT22;2949;50.778;7.094;2023-07-16T14:15:03;27.70;50.40
5846;DHT22;2949;50.778;7.094;2023-07-16T14:17:29;27.90;49.10
5846;DHT22;2949;50.778;7.094;2023-07-16T14:19:54;27.90;51.20
5846;DHT22;2949;50.778;7.094;2023-07-16T14:22:20;28.30;50.70
5846;DHT22;2949;50.778;7.094;2023-07-16T14:24:49;28.40;49.50
5846;DHT22;2949;50.778;7.094;2023-07-16T14:27:16;28.30;50.20
5846;DHT22;2949;50.778;7.094;2023-07-16T14:29:44;28.30;49.60
5846;DHT22;2949;50.778;7.094;2023-07-16T14:32:10;28.10;49.50
5846;DHT22;2949;50.778;7.094;2023-07-16T14:34:36;28.10;49.90
5846;DHT22;2949;50.778;7.094;2023-07-16T14:37:01;28.20;50.40
5846;DHT22;2949;50.778;7.094;2023-07-16T14:39:27;28.30;49.80
5846;DHT22;2949;50.778;7.094;2023-07-16T14:41:53;28.60;49.30
5846;DHT22;2949;50.778;7.094;2023-07-16T14:44:18;28.80;49.50
5846;DHT22;2949;50.778;7.094;2023-07-16T14:46:44;28.80;49.50
5846;DHT22;2949;50.778;7.094;2023-07-16T14:49:09;29.10;48.70
5846;DHT22;2949;50.778;7.094;2023-07-16T14:51:34;29.00;48.00
5846;DHT22;2949;50.778;7.094;2023-07-16T14:54:08;29.30;49.20
5846;DHT22;2949;50.778;7.094;2023-07-16T14:56:33;29.30;48.40
5846;DHT22;2949;50.778;7.094;2023-07-16T14:58:59;29.40;48.00
5846;DHT22;2949;50.778;7.094;2023-07-16T15:01:25;29.10;47.80
5846;DHT22;2949;50.778;7.094;2023-07-16T15:03:50;28.90;48.30
5846;DHT22;2949;50.778;7.094;2023-07-16T15:06:16;28.80;50.30
5846;DHT22;2949;50.778;7.094;2023-07-16T15:08:41;29.00;50.00
5846;DHT22;2949;50.778;7.094;2023-07-16T15:11:07;29.10;48.60
5846;DHT22;2949;50.778;7.094;2023-07-16T15:13:32;29.20;48.70
5846;DHT22;2949;50.778;7.094;2023-07-16T15:15:58;29.00;47.40
5846;DHT22;2949;50.778;7.094;2023-07-16T15:18:24;28.10;49.50
5846;DHT22;2949;50.778;7.094;2023-07-16T15:20:56;27.90;50.30
5846;DHT22;2949;50.778;7.094;2023-07-16T15:23:22;27.50;50.40
5846;DHT22;2949;50.778;7.094;2023-07-16T15:25:47;27.40;50.80
5846;DHT22;2949;50.778;7.094;2023-07-16T15:28:13;27.70;52.00
5846;DHT22;2949;50.778;7.094;2023-07-16T15:30:38;28.00;49.70
5846;DHT22;2949;50.778;7.094;2023-07-16T15:33:04;28.00;49.50
5846;DHT22;2949;50.778;7.094;2023-07-16T15:35:30;27.80;49.20
5846;DHT22;2949;50.778;7.094;2023-07-16T15:37:55;27.60;49.90
5846;DHT22;2949;50.778;7.094;2023-07-16T15:40:22;27.60;49.50
5846;DHT22;2949;50.778;7.094;2023-07-16T15:42:48;27.50;50.30
5846;DHT22;2949;50.778;7.094;2023-07-16T15:45:13;27.30;50.90
5846;DHT22;2949;50.778;7.094;2023-07-16T15:47:41;27.30;50.70
5846;DHT22;2949;50.778;7.094;2023-07-16T15:50:06;27.10;51.40
5846;DHT22;2949;50.778;7.094;2023-07-16T15:52:33;27.10;51.50
5846;DHT22;2949;50.778;7.094;2023-07-16T15:54:58;27.10;51.70
5846;DHT22;2949;50.778;7.094;2023-07-16T15:57:24;27.10;51.60
5846;DHT22;2949;50.778;7.094;2023-07-16T15:59:49;27.20;52.30
5846;DHT22;2949;50.778;7.094;2023-07-16T16:02:15;27.20;52.20